Grottoes, Virginia
Current Conditions -  °F | °C
As of 2:35 PM on Monday 22 Dec 2014 (Local Time) from KSHD Reporting Station
Drizzle Drizzle  
Wind Chill: 30°   Ceiling: 600
Heat Index: 34°   Visibility: 1.2mi
Dew Point: 32°   Wind: 5mph
Humidity: 92%   Direction: 10°N
Pressure: 30.13"   Gusts: NA
Location:  38.27°N, 78.83°W
Report Text: KSHD 221935Z AUTO 01004KT 1 1/4SM -DZ OVC006 01/00 A3013 RMK AO2 T00120000
Loading
Personal Weather Stations






























Interactive Weather Map New forecast layout! Learn more

10-Day Weather Forecast

Advertisements
Track Severe Weather on mobile